sensor_id;sensor_type;location;lat;lon;timestamp;pressure;altitude;pressure_sealevel;temperature;humidity
62548;BME280;48602;45.192;5.722;2023-04-22T00:00:42;98571.78;;;18.41;38.41
62548;BME280;48602;45.192;5.722;2023-04-22T00:03:07;98570.53;;;18.45;38.11
62548;BME280;48602;45.192;5.722;2023-04-22T00:05:33;98569.69;;;18.44;38.43
62548;BME280;48602;45.192;5.722;2023-04-22T00:07:58;98564.34;;;18.44;38.61
62548;BME280;48602;45.192;5.722;2023-04-22T00:10:24;98553.69;;;18.44;38.24
62548;BME280;48602;45.192;5.722;2023-04-22T00:12:49;98557.31;;;18.43;38.49
62548;BME280;48602;45.192;5.722;2023-04-22T00:15:15;98558.31;;;18.42;38.20
62548;BME280;48602;45.192;5.722;2023-04-22T00:17:42;98558.44;;;18.41;38.81
62548;BME280;48602;45.192;5.722;2023-04-22T00:20:08;98564.88;;;18.38;38.41
62548;BME280;48602;45.192;5.722;2023-04-22T00:22:35;98569.59;;;18.35;38.90
62548;BME280;48602;45.192;5.722;2023-04-22T00:25:00;98577.00;;;18.31;39.33
62548;BME280;48602;45.192;5.722;2023-04-22T00:27:26;98568.53;;;18.26;39.38
62548;BME280;48602;45.192;5.722;2023-04-22T00:29:51;98563.69;;;18.20;39.62
62548;BME280;48602;45.192;5.722;2023-04-22T00:32:16;98570.47;;;18.13;39.70
62548;BME280;48602;45.192;5.722;2023-04-22T00:34:42;98571.56;;;18.10;39.99
62548;BME280;48602;45.192;5.722;2023-04-22T00:37:07;98569.28;;;18.06;40.23
62548;BME280;48602;45.192;5.722;2023-04-22T00:39:32;98570.47;;;18.02;39.90
62548;BME280;48602;45.192;5.722;2023-04-22T00:41:58;98558.59;;;17.95;40.27
62548;BME280;48602;45.192;5.722;2023-04-22T00:44:25;98573.41;;;17.88;40.68
62548;BME280;48602;45.192;5.722;2023-04-22T00:46:51;98564.16;;;17.81;40.60
62548;BME280;48602;45.192;5.722;2023-04-22T00:49:19;98565.50;;;17.75;40.58
62548;BME280;48602;45.192;5.722;2023-04-22T00:51:44;98571.19;;;17.70;40.75
62548;BME280;48602;45.192;5.722;2023-04-22T00:54:09;98558.34;;;17.64;40.90
62548;BME280;48602;45.192;5.722;2023-04-22T00:56:37;98561.47;;;17.58;41.12
62548;BME280;48602;45.192;5.722;2023-04-22T00:59:02;98550.31;;;17.53;41.02
62548;BME280;48602;45.192;5.722;2023-04-22T01:01:29;98550.53;;;17.50;41.11
62548;BME280;48602;45.192;5.722;2023-04-22T01:03:54;98549.69;;;17.50;41.04
62548;BME280;48602;45.192;5.722;2023-04-22T01:06:22;98547.97;;;17.49;41.41
62548;BME280;48602;45.192;5.722;2023-04-22T01:08:48;98540.09;;;17.47;41.39
62548;BME280;48602;45.192;5.722;2023-04-22T01:11:13;98541.19;;;17.44;40.95
62548;BME280;48602;45.192;5.722;2023-04-22T01:13:39;98533.31;;;17.43;41.11
62548;BME280;48602;45.192;5.722;2023-04-22T01:16:07;98532.34;;;17.44;41.10
62548;BME280;48602;45.192;5.722;2023-04-22T01:18:33;98534.16;;;17.43;41.42
62548;BME280;48602;45.192;5.722;2023-04-22T01:21:00;98529.81;;;17.42;41.21
62548;BME280;48602;45.192;5.722;2023-04-22T01:23:26;98530.91;;;17.40;41.46
62548;BME280;48602;45.192;5.722;2023-04-22T01:25:52;98531.03;;;17.38;41.48
62548;BME280;48602;45.192;5.722;2023-04-22T01:28:18;98530.28;;;17.36;41.55
62548;BME280;48602;45.192;5.722;2023-04-22T01:30:43;98536.59;;;17.35;41.45
62548;BME280;48602;45.192;5.722;2023-04-22T01:33:09;98535.72;;;17.35;41.42
62548;BME280;48602;45.192;5.722;2023-04-22T01:35:36;98538.50;;;17.33;41.96
62548;BME280;48602;45.192;5.722;2023-04-22T01:38:03;98541.28;;;17.32;41.72
62548;BME280;48602;45.192;5.722;2023-04-22T01:40:33;98540.56;;;17.30;41.61
62548;BME280;48602;45.192;5.722;2023-04-22T01:42:59;98543.34;;;17.28;41.49
62548;BME280;48602;45.192;5.722;2023-04-22T01:45:25;98538.00;;;17.28;41.63
62548;BME280;48602;45.192;5.722;2023-04-22T01:47:51;98539.81;;;17.28;41.74
62548;BME280;48602;45.192;5.722;2023-04-22T01:50:17;98538.00;;;17.28;41.68
62548;BME280;48602;45.192;5.722;2023-04-22T01:52:42;98541.91;;;17.24;41.96
62548;BME280;48602;45.192;5.722;2023-04-22T01:55:08;98549.16;;;17.22;41.65
62548;BME280;48602;45.192;5.722;2023-04-22T01:57:33;98553.63;;;17.22;42.05
62548;BME280;48602;45.192;5.722;2023-04-22T01:59:59;98541.28;;;17.21;41.59
62548;BME280;48602;45.192;5.722;2023-04-22T02:02:25;98544.78;;;17.21;41.67
62548;BME280;48602;45.192;5.722;2023-04-22T02:04:50;98551.81;;;17.22;41.52
62548;BME280;48602;45.192;5.722;2023-04-22T02:07:15;98550.97;;;17.22;41.73
62548;BME280;48602;45.192;5.722;2023-04-22T02:09:41;98550.97;;;17.22;41.66
62548;BME280;48602;45.192;5.722;2023-04-22T02:12:06;98550.13;;;17.21;41.72
62548;BME280;48602;45.192;5.722;2023-04-22T02:14:32;98547.44;;;17.21;41.83
62548;BME280;48602;45.192;5.722;2023-04-22T02:16:57;98550.97;;;17.22;41.12
62548;BME280;48602;45.192;5.722;2023-04-22T02:19:22;98548.19;;;17.23;41.29
62548;BME280;48602;45.192;5.722;2023-04-22T02:21:48;98554.38;;;17.24;41.28
62548;BME280;48602;45.192;5.722;2023-04-22T02:24:13;98559.69;;;17.24;41.18
62548;BME280;48602;45.192;5.722;2023-04-22T02:26:39;98557.75;;;17.26;40.97
62548;BME280;48602;45.192;5.722;2023-04-22T02:29:05;98556.78;;;17.27;41.32
62548;BME280;48602;45.192;5.722;2023-04-22T02:31:31;98558.47;;;17.28;41.09
62548;BME280;48602;45.192;5.722;2023-04-22T02:33:56;98540.78;;;17.27;41.07
62548;BME280;48602;45.192;5.722;2023-04-22T02:36:21;98549.63;;;17.27;40.76
62548;BME280;48602;45.192;5.722;2023-04-22T02:38:47;98545.88;;;17.30;40.29
62548;BME280;48602;45.192;5.722;2023-04-22T02:41:13;98543.84;;;17.33;40.27
62548;BME280;48602;45.192;5.722;2023-04-22T02:43:38;98540.94;;;17.36;40.48
62548;BME280;48602;45.192;5.722;2023-04-22T02:46:06;98543.50;;;17.38;40.24
62548;BME280;48602;45.192;5.722;2023-04-22T02:48:31;98542.53;;;17.39;39.95
62548;BME280;48602;45.192;5.722;2023-04-22T02:50:57;98547.63;;;17.42;39.98
62548;BME280;48602;45.192;5.722;2023-04-22T02:53:22;98538.53;;;17.44;40.05
62548;BME280;48602;45.192;5.722;2023-04-22T02:55:47;98536.47;;;17.48;39.89
62548;BME280;48602;45.192;5.722;2023-04-22T02:58:13;98534.44;;;17.52;39.79
62548;BME280;48602;45.192;5.722;2023-04-22T03:00:38;98531.53;;;17.55;40.01
62548;BME280;48602;45.192;5.722;2023-04-22T03:03:03;98523.53;;;17.55;39.67
62548;BME280;48602;45.192;5.722;2023-04-22T03:05:29;98521.59;;;17.57;39.48
62548;BME280;48602;45.192;5.722;2023-04-22T03:07:55;98519.66;;;17.59;39.58
62548;BME280;48602;45.192;5.722;2023-04-22T03:10:21;98517.97;;;17.58;39.59
62548;BME280;48602;45.192;5.722;2023-04-22T03:12:46;98517.13;;;17.57;39.78
62548;BME280;48602;45.192;5.722;2023-04-22T03:15:13;98523.41;;;17.56;39.15
62548;BME280;48602;45.192;5.722;2023-04-22T03:17:38;98513.59;;;17.57;39.71
62548;BME280;48602;45.192;5.722;2023-04-22T03:20:04;98523.66;;;17.53;39.54
62548;BME280;48602;45.192;5.722;2023-04-22T03:22:30;98520.25;;;17.51;40.88
62548;BME280;48602;45.192;5.722;2023-04-22T03:24:55;98519.88;;;17.44;41.28
62548;BME280;48602;45.192;5.722;2023-04-22T03:27:21;98503.63;;;17.36;41.69
62548;BME280;48602;45.192;5.722;2023-04-22T03:29:46;98519.25;;;17.30;42.26
62548;BME280;48602;45.192;5.722;2023-04-22T03:32:12;98513.78;;;17.20;42.66
62548;BME280;48602;45.192;5.722;2023-04-22T03:34:37;98517.25;;;17.09;42.56
62548;BME280;48602;45.192;5.722;2023-04-22T03:37:02;98512.53;;;17.02;42.92
62548;BME280;48602;45.192;5.722;2023-04-22T03:39:28;98509.72;;;16.92;43.53
62548;BME280;48602;45.192;5.722;2023-04-22T03:41:53;98514.97;;;16.81;44.34
62548;BME280;48602;45.192;5.722;2023-04-22T03:44:18;98511.44;;;16.69;44.94
62548;BME280;48602;45.192;5.722;2023-04-22T03:46:44;98514.88;;;16.59;45.36
62548;BME280;48602;45.192;5.722;2023-04-22T03:49:09;98512.88;;;16.50;45.44
62548;BME280;48602;45.192;5.722;2023-04-22T03:51:35;98528.44;;;16.43;46.28
62548;BME280;48602;45.192;5.722;2023-04-22T03:54:01;98534.22;;;16.37;46.24
62548;BME280;48602;45.192;5.722;2023-04-22T03:56:26;98530.31;;;16.30;47.19
62548;BME280;48602;45.192;5.722;2023-04-22T03:58:52;98529.06;;;16.23;46.96
62548;BME280;48602;45.192;5.722;2023-04-22T04:01:17;98529.38;;;16.18;46.46
62548;BME280;48602;45.192;5.722;2023-04-22T04:03:42;98531.41;;;16.15;45.97
62548;BME280;48602;45.192;5.722;2023-04-22T04:06:08;98526.94;;;16.15;46.18
62548;BME280;48602;45.192;5.722;2023-04-22T04:08:33;98528.66;;;16.16;46.07
62548;BME280;48602;45.192;5.722;2023-04-22T04:10:59;98517.16;;;16.16;45.53
62548;BME280;48602;45.192;5.722;2023-04-22T04:13:24;98525.03;;;16.17;45.61
62548;BME280;48602;45.192;5.722;2023-04-22T04:15:49;98524.91;;;16.19;46.23
62548;BME280;48602;45.192;5.722;2023-04-22T04:18:16;98524.06;;;16.18;45.80
62548;BME280;48602;45.192;5.722;2023-04-22T04:20:42;98519.50;;;16.20;45.65
62548;BME280;48602;45.192;5.722;2023-04-22T04:23:07;98517.69;;;16.21;45.46
62548;BME280;48602;45.192;5.722;2023-04-22T04:25:33;98521.19;;;16.21;45.83
62548;BME280;48602;45.192;5.722;2023-04-22T04:28:09;98526.41;;;16.23;45.70
62548;BME280;48602;45.192;5.722;2023-04-22T04:30:35;98517.56;;;16.22;45.47
62548;BME280;48602;45.192;5.722;2023-04-22T04:33:01;98528.00;;;16.25;45.79
62548;BME280;48602;45.192;5.722;2023-04-22T04:35:33;98528.81;;;16.26;45.93
62548;BME280;48602;45.192;5.722;2023-04-22T04:37:59;98540.44;;;16.25;47.18
62548;BME280;48602;45.192;5.722;2023-04-22T04:40:25;98535.78;;;16.16;48.16
62548;BME280;48602;45.192;5.722;2023-04-22T04:42:53;98529.66;;;16.02;49.38
62548;BME280;48602;45.192;5.722;2023-04-22T04:45:20;98529.16;;;15.85;49.75
62548;BME280;48602;45.192;5.722;2023-04-22T04:47:46;98535.34;;;15.73;50.11
62548;BME280;48602;45.192;5.722;2023-04-22T04:50:14;98536.72;;;15.65;50.05
62548;BME280;48602;45.192;5.722;2023-04-22T04:52:40;98537.13;;;15.59;50.38
62548;BME280;48602;45.192;5.722;2023-04-22T04:55:06;98550.81;;;15.53;51.04
62548;BME280;48602;45.192;5.722;2023-04-22T04:57:31;98529.97;;;15.47;51.03
62548;BME280;48602;45.192;5.722;2023-04-22T04:59:56;98534.16;;;15.39;51.73
62548;BME280;48602;45.192;5.722;2023-04-22T05:02:22;98554.94;;;15.32;52.14
62548;BME280;48602;45.192;5.722;2023-04-22T05:04:47;98549.09;;;15.27;52.41
62548;BME280;48602;45.192;5.722;2023-04-22T05:07:12;98538.72;;;15.24;51.70
62548;BME280;48602;45.192;5.722;2023-04-22T05:09:38;98550.38;;;15.21;52.06
62548;BME280;48602;45.192;5.722;2023-04-22T05:12:03;98565.56;;;15.19;52.57
62548;BME280;48602;45.192;5.722;2023-04-22T05:14:29;98557.59;;;15.19;52.32
62548;BME280;48602;45.192;5.722;2023-04-22T05:16:54;98570.03;;;15.19;52.21
62548;BME280;48602;45.192;5.722;2023-04-22T05:19:20;98579.69;;;15.20;52.35
62548;BME280;48602;45.192;5.722;2023-04-22T05:21:45;98579.59;;;15.21;52.21
62548;BME280;48602;45.192;5.722;2023-04-22T05:24:11;98582.06;;;15.24;52.77
62548;BME280;48602;45.192;5.722;2023-04-22T05:26:36;98589.88;;;15.26;53.06
62548;BME280;48602;45.192;5.722;2023-04-22T05:29:02;98601.69;;;15.22;52.21
62548;BME280;48602;45.192;5.722;2023-04-22T05:31:27;98600.09;;;15.19;52.39
62548;BME280;48602;45.192;5.722;2023-04-22T05:33:53;98599.88;;;15.22;52.82
62548;BME280;48602;45.192;5.722;2023-04-22T05:36:18;98614.00;;;15.23;53.66
62548;BME280;48602;45.192;5.722;2023-04-22T05:38:44;98621.13;;;15.22;53.51
62548;BME280;48602;45.192;5.722;2023-04-22T05:41:09;98612.41;;;15.20;54.07
62548;BME280;48602;45.192;5.722;2023-04-22T05:43:34;98606.44;;;15.17;54.06
62548;BME280;48602;45.192;5.722;2023-04-22T05:46:00;98619.91;;;15.14;54.42
62548;BME280;48602;45.192;5.722;2023-04-22T05:48:25;98618.03;;;15.16;54.19
62548;BME280;48602;45.192;5.722;2023-04-22T05:50:51;98624.09;;;15.18;54.85
62548;BME280;48602;45.192;5.722;2023-04-22T05:53:16;98631.84;;;15.21;54.51
62548;BME280;48602;45.192;5.722;2023-04-22T05:55:42;98629.72;;;15.26;54.88
62548;BME280;48602;45.192;5.722;2023-04-22T05:58:08;98640.69;;;15.34;54.76
62548;BME280;48602;45.192;5.722;2023-04-22T06:00:33;98641.00;;;15.42;54.68
62548;BME280;48602;45.192;5.722;2023-04-22T06:02:58;98632.75;;;15.47;54.50
62548;BME280;48602;45.192;5.722;2023-04-22T06:05:24;98634.13;;;15.52;54.50
62548;BME280;48602;45.192;5.722;2023-04-22T06:07:50;98643.66;;;15.56;54.11
62548;BME280;48602;45.192;5.722;2023-04-22T06:10:15;98646.31;;;15.56;54.38
62548;BME280;48602;45.192;5.722;2023-04-22T06:12:40;98653.31;;;15.57;54.60
62548;BME280;48602;45.192;5.722;2023-04-22T06:15:06;98649.47;;;15.61;54.78
62548;BME280;48602;45.192;5.722;2023-04-22T06:17:32;98672.34;;;15.64;53.77
62548;BME280;48602;45.192;5.722;2023-04-22T06:19:57;98660.22;;;15.60;54.61
62548;BME280;48602;45.192;5.722;2023-04-22T06:22:22;98670.50;;;15.52;54.15
62548;BME280;48602;45.192;5.722;2023-04-22T06:24:48;98671.44;;;15.51;53.77
62548;BME280;48602;45.192;5.722;2023-04-22T06:27:13;98663.38;;;15.52;53.48
62548;BME280;48602;45.192;5.722;2023-04-22T06:29:39;98669.44;;;15.54;53.70
62548;BME280;48602;45.192;5.722;2023-04-22T06:32:04;98670.84;;;15.60;54.25
62548;BME280;48602;45.192;5.722;2023-04-22T06:34:29;98673.00;;;15.67;54.72
62548;BME280;48602;45.192;5.722;2023-04-22T06:36:55;98652.03;;;15.76;54.60
62548;BME280;48602;45.192;5.722;2023-04-22T06:39:21;98678.22;;;15.82;54.96
62548;BME280;48602;45.192;5.722;2023-04-22T06:41:46;98681.22;;;15.90;54.68
62548;BME280;48602;45.192;5.722;2023-04-22T06:44:12;98684.28;;;15.96;54.86
62548;BME280;48602;45.192;5.722;2023-04-22T06:46:37;98675.03;;;16.02;54.89
62548;BME280;48602;45.192;5.722;2023-04-22T06:49:03;98655.75;;;16.11;54.68
62548;BME280;48602;45.192;5.722;2023-04-22T06:51:28;98676.63;;;16.17;54.97
62548;BME280;48602;45.192;5.722;2023-04-22T06:53:53;98681.28;;;16.26;55.02
62548;BME280;48602;45.192;5.722;2023-04-22T06:56:19;98692.25;;;16.34;54.53
62548;BME280;48602;45.192;5.722;2023-04-22T06:58:44;98690.22;;;16.38;54.82
62548;BME280;48602;45.192;5.722;2023-04-22T07:01:10;98686.81;;;16.36;53.75
62548;BME280;48602;45.192;5.722;2023-04-22T07:03:35;98700.22;;;16.34;54.62
62548;BME280;48602;45.192;5.722;2023-04-22T07:06:00;98700.03;;;16.37;54.66
62548;BME280;48602;45.192;5.722;2023-04-22T07:08:26;98693.53;;;16.42;54.63
62548;BME280;48602;45.192;5.722;2023-04-22T07:10:51;98682.47;;;16.35;54.45
62548;BME280;48602;45.192;5.722;2023-04-22T07:13:17;98696.06;;;16.30;54.76
62548;BME280;48602;45.192;5.722;2023-04-22T07:15:42;98678.00;;;16.35;54.52
62548;BME280;48602;45.192;5.722;2023-04-22T07:18:07;98698.00;;;16.41;54.61
62548;BME280;48602;45.192;5.722;2023-04-22T07:20:33;98684.78;;;16.52;54.59
62548;BME280;48602;45.192;5.722;2023-04-22T07:22:58;98687.53;;;16.63;54.35
62548;BME280;48602;45.192;5.722;2023-04-22T07:25:24;98692.97;;;16.74;54.49
62548;BME280;48602;45.192;5.722;2023-04-22T07:27:49;98670.66;;;16.88;53.91
62548;BME280;48602;45.192;5.722;2023-04-22T07:30:15;98677.97;;;16.97;53.71
62548;BME280;48602;45.192;5.722;2023-04-22T07:32:40;98683.59;;;17.05;53.64
62548;BME280;48602;45.192;5.722;2023-04-22T07:35:06;98680.34;;;17.13;53.65
62548;BME280;48602;45.192;5.722;2023-04-22T07:37:31;98668.63;;;17.16;53.41
62548;BME280;48602;45.192;5.722;2023-04-22T07:39:56;98680.34;;;17.13;53.47
62548;BME280;48602;45.192;5.722;2023-04-22T07:42:22;98681.09;;;17.15;53.67
62548;BME280;48602;45.192;5.722;2023-04-22T07:44:47;98690.69;;;17.18;53.81
62548;BME280;48602;45.192;5.722;2023-04-22T07:47:13;98682.69;;;17.18;53.89
62548;BME280;48602;45.192;5.722;2023-04-22T07:49:38;98685.97;;;17.21;54.14
62548;BME280;48602;45.192;5.722;2023-04-22T07:52:03;98698.22;;;17.24;54.22
62548;BME280;48602;45.192;5.722;2023-04-22T07:54:29;98710.44;;;17.26;54.11
62548;BME280;48602;45.192;5.722;2023-04-22T07:56:54;98689.97;;;17.27;53.98
62548;BME280;48602;45.192;5.722;2023-04-22T07:59:21;98695.56;;;17.24;53.54
62548;BME280;48602;45.192;5.722;2023-04-22T08:01:47;98706.66;;;17.18;54.03
62548;BME280;48602;45.192;5.722;2023-04-22T08:04:12;98713.91;;;17.16;54.66
62548;BME280;48602;45.192;5.722;2023-04-22T08:06:37;98709.53;;;17.15;54.76
62548;BME280;48602;45.192;5.722;2023-04-22T08:09:03;98713.91;;;17.16;54.87
62548;BME280;48602;45.192;5.722;2023-04-22T08:11:28;98707.72;;;17.15;55.18
62548;BME280;48602;45.192;5.722;2023-04-22T08:13:53;98722.97;;;17.13;55.62
62548;BME280;48602;45.192;5.722;2023-04-22T08:16:19;98720.66;;;17.08;55.66
62548;BME280;48602;45.192;5.722;2023-04-22T08:18:44;98722.59;;;17.06;55.34
62548;BME280;48602;45.192;5.722;2023-04-22T08:21:10;98713.97;;;17.03;54.78
62548;BME280;48602;45.192;5.722;2023-04-22T08:23:36;98734.41;;;17.02;54.30
62548;BME280;48602;45.192;5.722;2023-04-22T08:26:02;98734.09;;;17.07;55.54
62548;BME280;48602;45.192;5.722;2023-04-22T08:28:27;98734.69;;;17.10;54.88
62548;BME280;48602;45.192;5.722;2023-04-22T08:30:53;98738.03;;;17.01;53.44
62548;BME280;48602;45.192;5.722;2023-04-22T08:33:18;98733.59;;;16.89;53.90
62548;BME280;48602;45.192;5.722;2023-04-22T08:35:43;98736.06;;;16.80;53.14
62548;BME280;48602;45.192;5.722;2023-04-22T08:38:09;98729.88;;;16.79;54.46
62548;BME280;48602;45.192;5.722;2023-04-22T08:40:34;98731.91;;;16.88;54.86
62548;BME280;48602;45.192;5.722;2023-04-22T08:43:00;98719.50;;;17.00;54.30
62548;BME280;48602;45.192;5.722;2023-04-22T08:45:26;98717.75;;;17.12;51.76
62548;BME280;48602;45.192;5.722;2023-04-22T08:47:52;98717.63;;;17.26;51.57
62548;BME280;48602;45.192;5.722;2023-04-22T08:50:19;98711.03;;;17.42;49.99
62548;BME280;48602;45.192;5.722;2023-04-22T08:52:46;98696.56;;;17.58;50.19
62548;BME280;48602;45.192;5.722;2023-04-22T08:55:11;98707.91;;;17.72;49.49
62548;BME280;48602;45.192;5.722;2023-04-22T08:57:39;98696.31;;;17.85;48.19
62548;BME280;48602;45.192;5.722;2023-04-22T09:00:05;98697.78;;;18.00;47.23
62548;BME280;48602;45.192;5.722;2023-04-22T09:02:33;98691.25;;;18.15;46.81
62548;BME280;48602;45.192;5.722;2023-04-22T09:05:00;98694.53;;;18.30;46.36
62548;BME280;48602;45.192;5.722;2023-04-22T09:07:27;98694.31;;;18.33;48.26
62548;BME280;48602;45.192;5.722;2023-04-22T09:09:54;98691.53;;;18.34;48.76
62548;BME280;48602;45.192;5.722;2023-04-22T09:12:20;98690.44;;;18.37;48.97
62548;BME280;48602;45.192;5.722;2023-04-22T09:14:46;98690.19;;;18.40;49.63
62548;BME280;48602;45.192;5.722;2023-04-22T09:17:14;98699.78;;;18.42;50.51
62548;BME280;48602;45.192;5.722;2023-04-22T09:19:40;98696.84;;;18.45;50.96
62548;BME280;48602;45.192;5.722;2023-04-22T09:22:12;98683.28;;;18.48;51.33
62548;BME280;48602;45.192;5.722;2023-04-22T09:24:48;98681.09;;;18.54;50.19
62548;BME280;48602;45.192;5.722;2023-04-22T09:27:15;98683.78;;;18.65;50.36
62548;BME280;48602;45.192;5.722;2023-04-22T09:29:47;98681.97;;;18.76;50.32
62548;BME280;48602;45.192;5.722;2023-04-22T09:32:14;98668.59;;;18.88;47.21
62548;BME280;48602;45.192;5.722;2023-04-22T09:34:50;98680.56;;;19.04;47.97
62548;BME280;48602;45.192;5.722;2023-04-22T09:37:25;98676.25;;;19.24;46.48
62548;BME280;48602;45.192;5.722;2023-04-22T09:39:52;98666.56;;;19.44;47.30
62548;BME280;48602;45.192;5.722;2023-04-22T09:42:19;98675.50;;;19.65;48.24
62548;BME280;48602;45.192;5.722;2023-04-22T09:44:49;98685.03;;;19.79;48.20
62548;BME280;48602;45.192;5.722;2023-04-22T09:47:19;98665.91;;;19.83;45.37
62548;BME280;48602;45.192;5.722;2023-04-22T09:49:46;98674.00;;;19.72;45.41
62548;BME280;48602;45.192;5.722;2023-04-22T09:52:23;98678.13;;;19.76;45.17
62548;BME280;48602;45.192;5.722;2023-04-22T09:54:51;98680.28;;;19.82;44.24
62548;BME280;48602;45.192;5.722;2023-04-22T09:57:17;98684.38;;;19.86;43.70
62548;BME280;48602;45.192;5.722;2023-04-22T09:59:42;98676.63;;;19.83;43.84
62548;BME280;48602;45.192;5.722;2023-04-22T10:02:08;98675.50;;;19.86;44.00
62548;BME280;48602;45.192;5.722;2023-04-22T10:04:34;98669.53;;;19.94;44.01
62548;BME280;48602;45.192;5.722;2023-04-22T10:06:59;98677.47;;;20.05;43.36
62548;BME280;48602;45.192;5.722;2023-04-22T10:09:27;98676.09;;;20.10;42.44
62548;BME280;48602;45.192;5.722;2023-04-22T10:11:54;98669.31;;;20.06;42.45
62548;BME280;48602;45.192;5.722;2023-04-22T10:14:23;98678.44;;;20.04;43.11
62548;BME280;48602;45.192;5.722;2023-04-22T10:16:51;98669.75;;;20.11;42.96
62548;BME280;48602;45.192;5.722;2023-04-22T10:19:22;98663.88;;;20.17;41.93
62548;BME280;48602;45.192;5.722;2023-04-22T10:21:51;98658.19;;;20.11;41.85
62548;BME280;48602;45.192;5.722;2023-04-22T10:24:19;98659.50;;;19.96;39.93
62548;BME280;48602;45.192;5.722;2023-04-22T10:29:20;98658.22;;;19.69;41.28
62548;BME280;48602;45.192;5.722;2023-04-22T10:32:03;98657.88;;;19.63;41.64
62548;BME280;48602;45.192;5.722;2023-04-22T10:34:30;98666.31;;;19.47;42.01
62548;BME280;48602;45.192;5.722;2023-04-22T10:37:09;98675.72;;;19.30;41.86
62548;BME280;48602;45.192;5.722;2023-04-22T10:39:36;98673.25;;;19.17;42.50
62548;BME280;48602;45.192;5.722;2023-04-22T10:44:51;98650.69;;;18.99;42.69
62548;BME280;48602;45.192;5.722;2023-04-22T10:47:31;98653.63;;;18.96;42.85
62548;BME280;48602;45.192;5.722;2023-04-22T10:50:20;98646.06;;;19.01;41.91
62548;BME280;48602;45.192;5.722;2023-04-22T10:52:49;98634.28;;;19.04;41.83
62548;BME280;48602;45.192;5.722;2023-04-22T10:55:14;98638.75;;;19.14;41.56
62548;BME280;48602;45.192;5.722;2023-04-22T10:57:42;98627.75;;;19.29;41.46
62548;BME280;48602;45.192;5.722;2023-04-22T11:00:24;98630.25;;;19.41;40.81
62548;BME280;48602;45.192;5.722;2023-04-22T11:03:06;98637.41;;;19.52;41.29
62548;BME280;48602;45.192;5.722;2023-04-22T11:05:32;98632.28;;;19.60;40.87
62548;BME280;48602;45.192;5.722;2023-04-22T11:08:16;98625.06;;;19.61;41.14
62548;BME280;48602;45.192;5.722;2023-04-22T11:10:45;98635.50;;;19.64;41.36
62548;BME280;48602;45.192;5.722;2023-04-22T11:13:13;98625.41;;;19.67;40.38
62548;BME280;48602;45.192;5.722;2023-04-22T11:15:45;98626.25;;;19.68;39.80
62548;BME280;48602;45.192;5.722;2023-04-22T11:18:19;98621.88;;;19.67;39.62
62548;BME280;48602;45.192;5.722;2023-04-22T11:20:46;98629.59;;;19.60;39.78
62548;BME280;48602;45.192;5.722;2023-04-22T11:23:26;98617.34;;;19.58;39.40
62548;BME280;48602;45.192;5.722;2023-04-22T11:26:00;98617.88;;;19.61;39.97
62548;BME280;48602;45.192;5.722;2023-04-22T11:28:26;98624.44;;;19.68;39.17
62548;BME280;48602;45.192;5.722;2023-04-22T11:31:00;98617.97;;;19.71;39.47
62548;BME280;48602;45.192;5.722;2023-04-22T11:33:26;98626.84;;;19.71;39.52
62548;BME280;48602;45.192;5.722;2023-04-22T11:35:51;98616.41;;;19.68;39.84
62548;BME280;48602;45.192;5.722;2023-04-22T11:38:16;98624.81;;;19.64;39.86
62548;BME280;48602;45.192;5.722;2023-04-22T11:40:43;98609.19;;;19.59;39.89
62548;BME280;48602;45.192;5.722;2023-04-22T11:43:09;98628.34;;;19.64;38.69
62548;BME280;48602;45.192;5.722;2023-04-22T11:45:36;98609.47;;;19.66;39.52
62548;BME280;48602;45.192;5.722;2023-04-22T11:48:05;98605.06;;;19.76;39.29
62548;BME280;48602;45.192;5.722;2023-04-22T11:50:36;98614.81;;;19.86;39.78
62548;BME280;48602;45.192;5.722;2023-04-22T11:53:03;98606.41;;;19.91;39.75
62548;BME280;48602;45.192;5.722;2023-04-22T11:55:35;98608.81;;;19.94;39.72
62548;BME280;48602;45.192;5.722;2023-04-22T12:00:38;98602.78;;;20.02;39.54
62548;BME280;48602;45.192;5.722;2023-04-22T12:08:25;98594.25;;;20.08;39.28
62548;BME280;48602;45.192;5.722;2023-04-22T12:13:33;98591.00;;;20.14;39.30
62548;BME280;48602;45.192;5.722;2023-04-22T12:16:16;98591.13;;;20.12;39.10
62548;BME280;48602;45.192;5.722;2023-04-22T12:18:53;98595.22;;;20.07;38.90
62548;BME280;48602;45.192;5.722;2023-04-22T12:21:23;98589.41;;;20.02;38.85
62548;BME280;48602;45.192;5.722;2023-04-22T12:23:59;98580.41;;;20.03;38.97
62548;BME280;48602;45.192;5.722;2023-04-22T12:26:27;98588.03;;;20.07;38.52
62548;BME280;48602;45.192;5.722;2023-04-22T12:28:54;98593.41;;;20.07;39.19
62548;BME280;48602;45.192;5.722;2023-04-22T12:31:20;98590.28;;;20.12;39.33
62548;BME280;48602;45.192;5.722;2023-04-22T12:33:45;98587.69;;;20.21;39.35
62548;BME280;48602;45.192;5.722;2023-04-22T12:36:11;98597.28;;;20.24;39.28
62548;BME280;48602;45.192;5.722;2023-04-22T12:38:37;98578.53;;;20.24;39.25
62548;BME280;48602;45.192;5.722;2023-04-22T12:41:03;98583.88;;;20.24;39.04
62548;BME280;48602;45.192;5.722;2023-04-22T12:43:30;98577.22;;;20.18;38.48
62548;BME280;48602;45.192;5.722;2023-04-22T12:46:09;98568.75;;;20.13;38.87
62548;BME280;48602;45.192;5.722;2023-04-22T12:48:35;98580.72;;;20.09;39.08
62548;BME280;48602;45.192;5.722;2023-04-22T12:51:04;98564.69;;;20.09;39.32
62548;BME280;48602;45.192;5.722;2023-04-22T12:53:30;98575.66;;;20.16;39.36
62548;BME280;48602;45.192;5.722;2023-04-22T12:55:56;98580.63;;;20.20;39.75
62548;BME280;48602;45.192;5.722;2023-04-22T12:58:23;98596.94;;;20.17;39.21
62548;BME280;48602;45.192;5.722;2023-04-22T13:00:48;98580.31;;;20.14;39.97
62548;BME280;48602;45.192;5.722;2023-04-22T13:03:13;98585.66;;;20.14;39.78
62548;BME280;48602;45.192;5.722;2023-04-22T13:05:39;98599.75;;;20.16;39.64
62548;BME280;48602;45.192;5.722;2023-04-22T13:08:04;98585.97;;;20.20;40.20
62548;BME280;48602;45.192;5.722;2023-04-22T13:10:30;98576.28;;;20.29;40.25
62548;BME280;48602;45.192;5.722;2023-04-22T13:12:56;98578.63;;;20.43;39.30